createdAt,value
2017-02-08T00:00:26.955Z,0
2017-02-08T00:01:27.675Z,0
2017-02-08T00:02:28.385Z,0
2017-02-08T00:03:29.133Z,0
2017-02-08T00:04:29.822Z,0
2017-02-08T00:05:30.511Z,0
2017-02-08T00:06:31.225Z,0
2017-02-08T00:07:31.944Z,0
2017-02-08T00:08:32.664Z,0
2017-02-08T00:09:33.334Z,0
2017-02-08T00:10:34.008Z,0
2017-02-08T00:11:34.679Z,0
2017-02-08T00:12:35.371Z,0
2017-02-08T00:13:36.036Z,0
2017-02-08T00:14:36.743Z,0
2017-02-08T00:15:37.417Z,0
2017-02-08T00:16:38.095Z,0
2017-02-08T00:17:38.760Z,0
2017-02-08T00:18:39.451Z,0
2017-02-08T00:19:40.131Z,0
2017-02-08T00:20:40.824Z,0
2017-02-08T00:21:41.520Z,0
2017-02-08T00:22:42.196Z,0
2017-02-08T00:23:42.871Z,0
2017-02-08T00:24:43.562Z,0
2017-02-08T00:25:44.244Z,0
2017-02-08T00:26:44.971Z,0
2017-02-08T00:27:45.637Z,0
2017-02-08T00:28:46.305Z,0
2017-02-08T00:29:46.991Z,0
2017-02-08T00:30:47.677Z,0
2017-02-08T00:31:48.339Z,0
2017-02-08T00:32:49.057Z,0
2017-02-08T00:33:49.720Z,0
2017-02-08T00:34:50.394Z,0
2017-02-08T00:35:51.070Z,0
2017-02-08T00:36:51.735Z,0
2017-02-08T00:37:52.423Z,0
2017-02-08T00:38:53.142Z,0
2017-02-08T00:39:53.825Z,0
2017-02-08T00:40:54.499Z,0
2017-02-08T00:41:55.166Z,0
2017-02-08T00:42:55.867Z,0
2017-02-08T00:43:56.541Z,0
2017-02-08T00:44:57.237Z,0
2017-02-08T00:45:57.940Z,0
2017-02-08T00:46:58.629Z,0
2017-02-08T00:47:59.292Z,0
2017-02-08T00:48:59.961Z,0
2017-02-08T00:50:00.640Z,0
2017-02-08T00:51:01.321Z,0
2017-02-08T00:52:01.983Z,0
2017-02-08T00:53:02.652Z,0
2017-02-08T00:54:03.325Z,0
2017-02-08T00:55:03.998Z,0
2017-02-08T00:56:04.667Z,0
2017-02-08T00:57:05.367Z,0
2017-02-08T00:58:06.035Z,0
2017-02-08T00:59:06.710Z,0
2017-02-08T01:00:07.448Z,0
2017-02-08T01:01:08.133Z,0
2017-02-08T01:02:08.806Z,0
2017-02-08T01:03:09.504Z,0
2017-02-08T01:04:10.214Z,0
2017-02-08T01:05:10.928Z,0
2017-02-08T01:06:11.602Z,0
2017-02-08T01:07:12.280Z,0
2017-02-08T01:08:12.969Z,0
2017-02-08T01:09:13.701Z,0
2017-02-08T01:10:14.393Z,0
2017-02-08T01:11:15.062Z,0
2017-02-08T01:12:15.731Z,0
2017-02-08T01:13:16.407Z,0
2017-02-08T01:14:17.070Z,0
2017-02-08T01:15:17.746Z,0
2017-02-08T01:16:18.416Z,0
2017-02-08T01:17:19.096Z,0
2017-02-08T01:18:19.760Z,0
2017-02-08T01:19:20.438Z,0
2017-02-08T01:20:21.098Z,0
2017-02-08T01:21:21.784Z,0
2017-02-08T01:22:22.451Z,0
2017-02-08T01:23:23.183Z,0
2017-02-08T01:24:23.850Z,0
2017-02-08T01:25:24.540Z,0
2017-02-08T01:26:25.222Z,0
2017-02-08T01:27:25.917Z,0
2017-02-08T01:28:26.685Z,0
2017-02-08T01:29:27.371Z,0
2017-02-08T01:30:28.037Z,0
2017-02-08T01:31:28.731Z,0
2017-02-08T01:32:29.433Z,0
2017-02-08T01:33:30.122Z,0
2017-02-08T01:34:30.797Z,0
2017-02-08T01:35:31.452Z,0
2017-02-08T01:36:32.175Z,0
2017-02-08T01:37:32.874Z,0
2017-02-08T01:38:33.547Z,0
2017-02-08T01:39:34.237Z,0
2017-02-08T01:40:34.919Z,0
2017-02-08T01:41:35.649Z,0
2017-02-08T01:42:36.320Z,0
2017-02-08T01:43:37.001Z,0
2017-02-08T01:44:37.740Z,0
2017-02-08T01:45:38.400Z,0
2017-02-08T01:46:39.136Z,0
2017-02-08T01:47:39.828Z,0
2017-02-08T01:48:40.493Z,0
2017-02-08T01:49:41.172Z,0
2017-02-08T01:50:41.841Z,0
2017-02-08T01:51:42.506Z,0
2017-02-08T01:52:43.187Z,0
2017-02-08T01:53:43.869Z,0
2017-02-08T01:54:44.572Z,0
2017-02-08T01:55:45.252Z,0
2017-02-08T01:56:45.945Z,0
2017-02-08T01:57:46.608Z,0
2017-02-08T01:58:47.278Z,0
2017-02-08T01:59:47.947Z,0
2017-02-08T02:00:48.615Z,0
2017-02-08T02:01:49.284Z,0
2017-02-08T02:02:49.953Z,0
2017-02-08T02:03:50.631Z,0
2017-02-08T02:04:51.320Z,0
2017-02-08T02:05:51.991Z,0
2017-02-08T02:06:52.679Z,0
2017-02-08T02:07:53.339Z,0
2017-02-08T02:08:54.028Z,0
2017-02-08T02:09:54.719Z,0
2017-02-08T02:10:55.391Z,0
2017-02-08T02:11:56.067Z,0
2017-02-08T02:12:56.737Z,0
2017-02-08T02:13:57.396Z,0
2017-02-08T02:14:58.088Z,0
2017-02-08T02:15:58.804Z,0
2017-02-08T02:16:59.477Z,0
2017-02-08T02:18:00.147Z,0
2017-02-08T02:19:00.815Z,0
2017-02-08T02:20:01.493Z,0
2017-02-08T02:21:02.166Z,0
2017-02-08T02:22:02.848Z,0
2017-02-08T02:23:03.524Z,0
2017-02-08T02:24:04.218Z,0
2017-02-08T02:25:04.882Z,0
2017-02-08T02:26:05.574Z,0
2017-02-08T02:27:06.283Z,0
2017-02-08T02:28:06.951Z,0
2017-02-08T02:29:07.626Z,0
2017-02-08T02:30:08.291Z,0
2017-02-08T02:31:08.984Z,0
2017-02-08T02:32:09.673Z,0
2017-02-08T02:33:10.320Z,0
2017-02-08T02:34:10.986Z,0
2017-02-08T02:35:11.651Z,0
2017-02-08T02:36:12.332Z,0
2017-02-08T02:37:13.051Z,0
2017-02-08T02:38:13.805Z,0
2017-02-08T02:39:14.470Z,0
2017-02-08T02:40:15.162Z,0
2017-02-08T02:41:15.868Z,0
2017-02-08T02:42:16.531Z,0
2017-02-08T02:43:17.187Z,0
2017-02-08T02:44:17.894Z,0
2017-02-08T02:45:18.592Z,0
2017-02-08T02:46:19.262Z,0
2017-02-08T02:47:19.937Z,0
2017-02-08T02:48:27.619Z,0
2017-02-08T02:49:28.346Z,0
2017-02-08T02:50:29.056Z,0
2017-02-08T02:51:29.741Z,0
2017-02-08T02:52:30.418Z,0
2017-02-08T02:53:31.090Z,0
2017-02-08T02:54:31.775Z,0
2017-02-08T02:55:32.465Z,0
2017-02-08T02:56:33.133Z,0
2017-02-08T02:57:33.807Z,0
2017-02-08T02:58:34.489Z,0
2017-02-08T02:59:35.203Z,0
2017-02-08T03:00:35.883Z,0
2017-02-08T03:01:36.584Z,0
2017-02-08T03:02:37.256Z,0
2017-02-08T03:03:37.925Z,0
2017-02-08T03:04:38.593Z,0
2017-02-08T03:05:39.251Z,0
2017-02-08T03:06:39.925Z,0
2017-02-08T03:07:40.609Z,0
2017-02-08T03:08:41.315Z,0
2017-02-08T03:09:42.001Z,0
2017-02-08T03:10:42.687Z,0
2017-02-08T03:11:43.411Z,0
2017-02-08T03:12:44.109Z,0
2017-02-08T03:13:44.779Z,0
2017-02-08T03:14:45.438Z,0
2017-02-08T03:15:46.110Z,0
2017-02-08T03:16:46.794Z,0
2017-02-08T03:17:47.476Z,0
2017-02-08T03:18:48.140Z,0
2017-02-08T03:19:48.824Z,0
2017-02-08T03:20:49.515Z,0
2017-02-08T03:21:50.162Z,0
2017-02-08T03:22:50.850Z,0
2017-02-08T03:23:51.541Z,0
2017-02-08T03:24:52.217Z,0
2017-02-08T03:25:52.905Z,0
2017-02-08T03:26:53.585Z,0
2017-02-08T03:27:54.268Z,0
2017-02-08T03:28:54.969Z,0
2017-02-08T03:29:55.642Z,0
2017-02-08T03:30:56.324Z,0
2017-02-08T03:31:57.002Z,0
2017-02-08T03:32:57.670Z,0
2017-02-08T03:33:58.332Z,0
2017-02-08T03:34:59.007Z,0
2017-02-08T03:35:59.674Z,0
2017-02-08T03:37:00.347Z,0
2017-02-08T03:38:01.032Z,0
2017-02-08T03:39:01.695Z,0
2017-02-08T03:40:02.363Z,0
2017-02-08T03:41:03.030Z,0
2017-02-08T03:42:03.700Z,0
2017-02-08T03:43:04.376Z,0
2017-02-08T03:44:05.062Z,0
2017-02-08T03:45:05.772Z,0
2017-02-08T03:46:06.442Z,0
2017-02-08T03:47:07.115Z,0
2017-02-08T03:48:07.841Z,0
2017-02-08T03:49:08.516Z,0
2017-02-08T03:50:09.194Z,0
2017-02-08T03:51:09.858Z,0
2017-02-08T03:52:10.530Z,0
2017-02-08T03:53:11.198Z,0
2017-02-08T03:54:11.877Z,0
2017-02-08T03:55:12.544Z,0
2017-02-08T03:56:13.248Z,0
2017-02-08T03:57:13.937Z,0
2017-02-08T03:58:14.610Z,0
2017-02-08T03:59:15.287Z,0
2017-02-08T04:00:15.964Z,0
2017-02-08T04:01:16.627Z,0
2017-02-08T04:02:17.299Z,0
2017-02-08T04:03:17.979Z,0
2017-02-08T04:04:18.655Z,0
2017-02-08T04:05:19.325Z,0
2017-02-08T04:06:19.994Z,0
2017-02-08T04:07:20.682Z,0
2017-02-08T04:08:21.340Z,0
2017-02-08T04:09:22.014Z,0
2017-02-08T04:10:22.681Z,0
2017-02-08T04:11:23.357Z,0
2017-02-08T04:12:24.032Z,0
2017-02-08T04:13:24.700Z,0
2017-02-08T04:14:25.368Z,0
2017-02-08T04:15:26.055Z,0
2017-02-08T04:16:26.733Z,0
2017-02-08T04:17:27.398Z,0
2017-02-08T04:18:28.075Z,0
2017-02-08T04:19:28.756Z,0
2017-02-08T04:20:29.456Z,0
2017-02-08T04:21:30.135Z,0
2017-02-08T04:22:30.808Z,0
2017-02-08T04:23:31.488Z,0
2017-02-08T04:24:32.171Z,0
2017-02-08T04:25:32.861Z,0
2017-02-08T04:26:33.538Z,0
2017-02-08T04:27:34.227Z,0
2017-02-08T04:28:34.892Z,0
2017-02-08T04:29:35.555Z,0
2017-02-08T04:30:36.238Z,0
2017-02-08T04:31:36.919Z,0
2017-02-08T04:32:37.575Z,0
2017-02-08T04:33:38.255Z,0
2017-02-08T04:34:38.928Z,0
2017-02-08T04:35:39.609Z,0
2017-02-08T04:36:40.305Z,0
2017-02-08T04:37:40.965Z,0
2017-02-08T04:38:41.634Z,0
2017-02-08T04:39:42.331Z,0
2017-02-08T04:40:43.002Z,0
2017-02-08T04:41:43.674Z,0
2017-02-08T04:42:44.369Z,0
2017-02-08T04:43:45.047Z,0
2017-02-08T04:44:45.724Z,0
2017-02-08T04:45:46.391Z,0
2017-02-08T04:46:47.067Z,0
2017-02-08T04:47:47.733Z,0
2017-02-08T04:48:48.407Z,0
2017-02-08T04:49:49.094Z,0
2017-02-08T04:50:49.784Z,0
2017-02-08T04:51:50.488Z,0
2017-02-08T04:52:51.149Z,0
2017-02-08T04:53:51.821Z,0
2017-02-08T04:54:52.488Z,0
2017-02-08T04:55:53.167Z,0
2017-02-08T04:56:53.839Z,0
2017-02-08T04:57:54.532Z,0
2017-02-08T04:58:55.213Z,0
2017-02-08T04:59:55.907Z,0
2017-02-08T05:00:56.591Z,0
2017-02-08T05:01:57.277Z,0
2017-02-08T05:02:57.987Z,0
2017-02-08T05:03:58.669Z,0
2017-02-08T05:04:59.333Z,0
2017-02-08T05:06:00.047Z,0
2017-02-08T05:07:00.723Z,0
2017-02-08T05:08:01.411Z,0
2017-02-08T05:09:02.081Z,0
2017-02-08T05:10:02.752Z,0
2017-02-08T05:11:03.428Z,0
2017-02-08T05:12:04.122Z,0
2017-02-08T05:13:04.797Z,0
2017-02-08T05:14:05.477Z,0
2017-02-08T05:15:06.161Z,0
2017-02-08T05:16:06.820Z,0
2017-02-08T05:17:07.482Z,0
2017-02-08T05:18:08.158Z,0
2017-02-08T05:19:08.832Z,0
2017-02-08T05:20:09.505Z,0
2017-02-08T05:21:10.177Z,0
2017-02-08T05:22:10.838Z,0
2017-02-08T05:23:11.515Z,0
2017-02-08T05:24:12.234Z,0
2017-02-08T05:25:12.940Z,0
2017-02-08T05:26:13.613Z,0
2017-02-08T05:27:14.303Z,0
2017-02-08T05:28:14.979Z,0
2017-02-08T05:29:15.653Z,0
2017-02-08T05:30:16.320Z,0
2017-02-08T05:31:17.031Z,0
2017-02-08T05:32:17.721Z,0
2017-02-08T05:33:18.393Z,0
2017-02-08T05:34:19.056Z,0
2017-02-08T05:35:19.740Z,0
2017-02-08T05:36:20.412Z,0
2017-02-08T05:37:21.085Z,0
2017-02-08T05:38:21.779Z,0
2017-02-08T05:39:22.472Z,0
2017-02-08T05:40:23.150Z,0
2017-02-08T05:41:23.818Z,0
2017-02-08T05:42:24.494Z,0
2017-02-08T05:43:25.172Z,0
2017-02-08T05:44:25.841Z,0
2017-02-08T05:45:26.513Z,0
2017-02-08T05:46:27.183Z,0
2017-02-08T05:47:27.852Z,0
2017-02-08T05:48:28.524Z,0
2017-02-08T05:49:29.193Z,0
2017-02-08T05:50:29.876Z,0
2017-02-08T05:51:30.548Z,0
2017-02-08T05:52:31.210Z,0
2017-02-08T05:53:31.884Z,0
2017-02-08T05:54:32.571Z,0
2017-02-08T05:55:33.233Z,0
2017-02-08T05:56:33.907Z,0
2017-02-08T05:57:34.581Z,0
2017-02-08T05:58:35.252Z,0
2017-02-08T05:59:35.961Z,0
2017-02-08T06:00:36.636Z,0
2017-02-08T06:01:37.313Z,0
2017-02-08T06:02:37.980Z,0
2017-02-08T06:03:38.648Z,0
2017-02-08T06:04:39.331Z,0
2017-02-08T06:05:40.011Z,0
2017-02-08T06:06:40.682Z,0
2017-02-08T06:07:41.354Z,0
2017-02-08T06:08:42.029Z,0
2017-02-08T06:09:42.707Z,0
2017-02-08T06:10:43.393Z,0
2017-02-08T06:11:44.073Z,0
2017-02-08T06:12:44.745Z,0
2017-02-08T06:13:45.433Z,0
2017-02-08T06:14:46.114Z,0
2017-02-08T06:15:46.790Z,0
2017-02-08T06:16:47.459Z,0
2017-02-08T06:17:48.127Z,0
2017-02-08T06:18:48.805Z,0
2017-02-08T06:19:49.480Z,0
2017-02-08T06:20:50.202Z,0
2017-02-08T06:21:50.859Z,0
2017-02-08T06:22:51.542Z,0
2017-02-08T06:23:52.202Z,0
2017-02-08T06:24:52.881Z,0
2017-02-08T06:25:53.578Z,0
2017-02-08T06:26:54.261Z,0
2017-02-08T06:27:54.945Z,0
2017-02-08T06:28:55.597Z,0
2017-02-08T06:29:56.266Z,0
2017-02-08T06:30:56.959Z,0
2017-02-08T06:31:57.622Z,0
2017-02-08T06:32:58.294Z,0
2017-02-08T06:33:58.963Z,0
2017-02-08T06:34:59.632Z,0
2017-02-08T06:36:00.307Z,0
2017-02-08T06:37:00.976Z,0
2017-02-08T06:38:01.655Z,0
2017-02-08T06:39:02.323Z,0
2017-02-08T06:40:03.001Z,0
2017-02-08T06:41:03.661Z,0
2017-02-08T06:42:04.341Z,0
2017-02-08T06:43:05.033Z,0
2017-02-08T06:44:05.739Z,0
2017-02-08T06:45:06.407Z,0
2017-02-08T06:46:07.073Z,0
2017-02-08T06:47:07.755Z,0
2017-02-08T06:48:08.436Z,0
2017-02-08T06:49:09.094Z,0
2017-02-08T06:50:09.770Z,0
2017-02-08T06:51:10.438Z,0
2017-02-08T06:52:11.116Z,0
2017-02-08T06:53:11.840Z,0
2017-02-08T06:54:12.586Z,0
2017-02-08T06:55:13.288Z,0
2017-02-08T06:56:13.959Z,0
2017-02-08T06:57:14.657Z,0
2017-02-08T06:58:15.342Z,0
2017-02-08T06:59:16.023Z,0
2017-02-08T07:00:16.693Z,0
2017-02-08T07:01:17.367Z,0
2017-02-08T07:02:18.035Z,0
2017-02-08T07:03:18.690Z,0
2017-02-08T07:04:19.378Z,0
2017-02-08T07:05:20.058Z,0
2017-02-08T07:06:20.716Z,0
2017-02-08T07:07:21.392Z,0
2017-02-08T07:08:22.066Z,5
2017-02-08T07:09:22.748Z,5
2017-02-08T07:10:23.413Z,5
2017-02-08T07:11:24.085Z,5
2017-02-08T07:12:24.756Z,5
2017-02-08T07:13:25.430Z,5
2017-02-08T07:14:26.133Z,5
2017-02-08T07:15:26.806Z,5
2017-02-08T07:16:27.498Z,5
2017-02-08T07:17:28.226Z,5
2017-02-08T07:18:28.997Z,5
2017-02-08T07:19:29.721Z,5
2017-02-08T07:20:30.404Z,10
2017-02-08T07:21:31.079Z,10
2017-02-08T07:22:31.785Z,10
2017-02-08T07:23:32.456Z,10
2017-02-08T07:24:33.131Z,10
2017-02-08T07:25:33.805Z,10
2017-02-08T07:26:34.471Z,10
2017-02-08T07:27:35.152Z,10
2017-02-08T07:28:35.876Z,10
2017-02-08T07:29:36.551Z,10
2017-02-08T07:30:37.216Z,10
2017-02-08T07:31:37.889Z,10
2017-02-08T07:32:38.562Z,10
2017-02-08T07:33:39.229Z,10
2017-02-08T07:34:39.910Z,15
2017-02-08T07:35:40.578Z,15
2017-02-08T07:36:41.246Z,15
2017-02-08T07:37:41.921Z,15
2017-02-08T07:38:42.587Z,15
2017-02-08T07:39:43.261Z,15
2017-02-08T07:40:43.930Z,15
2017-02-08T07:41:44.608Z,15
2017-02-08T07:42:45.287Z,15
2017-02-08T07:43:46.016Z,15
2017-02-08T07:44:46.670Z,20
2017-02-08T07:45:47.412Z,20
2017-02-08T07:46:48.089Z,20
2017-02-08T07:47:48.785Z,20
2017-02-08T07:48:49.472Z,15
2017-02-08T07:49:50.150Z,15
2017-02-08T07:50:50.821Z,15
2017-02-08T07:51:51.497Z,15
2017-02-08T07:52:52.206Z,15
2017-02-08T07:53:52.872Z,15
2017-02-08T07:54:53.559Z,20
2017-02-08T07:55:54.253Z,20
2017-02-08T07:56:54.953Z,25
2017-02-08T07:57:55.636Z,25
2017-02-08T07:58:56.316Z,25
2017-02-08T07:59:57.008Z,25
2017-02-08T08:00:57.704Z,25
2017-02-08T08:01:58.373Z,25
2017-02-08T08:02:59.042Z,25
2017-02-08T08:03:59.713Z,25
2017-02-08T08:05:00.391Z,20
2017-02-08T08:06:01.054Z,20
2017-02-08T08:07:01.747Z,20
2017-02-08T08:08:02.415Z,20
2017-02-08T08:09:03.135Z,20
2017-02-08T08:10:03.800Z,25
2017-02-08T08:11:04.463Z,25
2017-02-08T08:12:05.127Z,25
2017-02-08T08:13:05.834Z,25
2017-02-08T08:14:06.532Z,25
2017-02-08T08:15:07.226Z,20
2017-02-08T08:16:07.903Z,25
2017-02-08T08:17:08.592Z,30
2017-02-08T08:18:09.242Z,35
2017-02-08T08:19:10.005Z,30
2017-02-08T08:20:10.669Z,30
2017-02-08T08:21:11.345Z,25
2017-02-08T08:22:12.055Z,25
2017-02-08T08:23:12.734Z,25
2017-02-08T08:24:13.402Z,25
2017-02-08T08:25:14.075Z,25
2017-02-08T08:26:14.749Z,35
2017-02-08T08:27:15.421Z,35
2017-02-08T08:28:16.141Z,40
2017-02-08T08:29:16.807Z,45
2017-02-08T08:30:17.501Z,45
2017-02-08T08:31:18.263Z,35
2017-02-08T08:32:18.937Z,40
2017-02-08T08:33:19.620Z,35
2017-02-08T08:34:20.307Z,35
2017-02-08T08:35:20.992Z,40
2017-02-08T08:36:21.726Z,40
2017-02-08T08:37:22.422Z,35
2017-02-08T08:38:23.113Z,30
2017-02-08T08:39:23.796Z,30
2017-02-08T08:40:24.472Z,35
2017-02-08T08:41:25.147Z,35
2017-02-08T08:42:25.817Z,40
2017-02-08T08:43:26.489Z,35
2017-02-08T08:44:27.212Z,35
2017-02-08T08:45:27.882Z,40
2017-02-08T08:46:28.569Z,40
2017-02-08T08:47:29.252Z,40
2017-02-08T08:48:29.947Z,45
2017-02-08T08:49:30.607Z,40
2017-02-08T08:50:31.290Z,40
2017-02-08T08:51:31.989Z,40
2017-02-08T08:52:32.678Z,40
2017-02-08T08:53:33.360Z,40
2017-02-08T08:54:34.036Z,45
2017-02-08T08:55:34.754Z,50
2017-02-08T08:56:35.430Z,45
2017-02-08T08:57:36.241Z,40
2017-02-08T08:58:36.911Z,30
2017-02-08T08:59:37.717Z,35
2017-02-08T09:00:38.436Z,40
2017-02-08T09:01:39.101Z,45
2017-02-08T09:02:39.874Z,50
2017-02-08T09:03:40.553Z,55
2017-02-08T09:04:41.264Z,60
2017-02-08T09:05:41.957Z,60
2017-02-08T09:06:42.621Z,50
2017-02-08T09:07:43.345Z,40
2017-02-08T09:08:44.024Z,40
2017-02-08T09:09:44.727Z,40
2017-02-08T09:10:45.454Z,35
2017-02-08T09:11:46.172Z,40
2017-02-08T09:12:46.857Z,40
2017-02-08T09:13:47.543Z,35
2017-02-08T09:14:48.223Z,45
2017-02-08T09:15:48.913Z,50
2017-02-08T09:16:49.679Z,45
2017-02-08T09:17:50.435Z,50
2017-02-08T09:18:51.117Z,50
2017-02-08T09:19:51.834Z,50
2017-02-08T09:20:52.525Z,50
2017-02-08T09:21:53.222Z,40
2017-02-08T09:22:53.890Z,45
2017-02-08T09:23:54.561Z,50
2017-02-08T09:24:55.242Z,50
2017-02-08T09:25:55.956Z,60
2017-02-08T09:26:56.637Z,60
2017-02-08T09:27:57.313Z,65
2017-02-08T09:28:57.995Z,70
2017-02-08T09:29:58.682Z,65
2017-02-08T09:30:59.368Z,65
2017-02-08T09:32:00.051Z,60
2017-02-08T09:33:00.729Z,60
2017-02-08T09:34:01.430Z,55
2017-02-08T09:35:02.232Z,55
2017-02-08T09:36:02.904Z,55
2017-02-08T09:37:03.594Z,60
2017-02-08T09:38:04.270Z,70
2017-02-08T09:39:04.959Z,70
2017-02-08T09:40:05.734Z,65
2017-02-08T09:41:06.404Z,65
2017-02-08T09:42:07.076Z,65
2017-02-08T09:43:07.753Z,70
2017-02-08T09:44:08.445Z,70
2017-02-08T09:45:09.126Z,65
2017-02-08T09:46:09.834Z,60
2017-02-08T09:47:10.492Z,50
2017-02-08T09:48:11.144Z,50
2017-02-08T09:49:11.816Z,45
2017-02-08T09:50:12.508Z,40
2017-02-08T09:51:13.178Z,45
2017-02-08T09:52:13.872Z,45
2017-02-08T09:53:14.559Z,50
2017-02-08T09:54:15.249Z,60
2017-02-08T09:55:15.928Z,70
2017-02-08T09:56:16.596Z,75
2017-02-08T09:57:17.299Z,70
2017-02-08T09:58:17.993Z,65
2017-02-08T09:59:18.818Z,55
2017-02-08T10:00:19.498Z,55
2017-02-08T10:01:20.165Z,65
2017-02-08T10:02:20.854Z,75
2017-02-08T10:03:21.508Z,70
2017-02-08T10:04:22.183Z,70
2017-02-08T10:05:22.864Z,65
2017-02-08T10:06:23.558Z,65
2017-02-08T10:07:24.240Z,75
2017-02-08T10:08:24.923Z,80
2017-02-08T10:09:25.627Z,85
2017-02-08T10:10:26.285Z,85
2017-02-08T10:11:26.959Z,85
2017-02-08T10:12:27.647Z,85
2017-02-08T10:13:28.321Z,80
2017-02-08T10:14:29.003Z,75
2017-02-08T10:15:29.670Z,80
2017-02-08T10:16:30.334Z,85
2017-02-08T10:17:31.012Z,90
2017-02-08T10:18:31.686Z,90
2017-02-08T10:19:32.379Z,90
2017-02-08T10:20:33.057Z,85
2017-02-08T10:21:33.736Z,85
2017-02-08T10:22:34.414Z,85
2017-02-08T10:23:35.078Z,85
2017-02-08T10:24:35.741Z,80
2017-02-08T10:25:36.429Z,75
2017-02-08T10:26:37.110Z,80
2017-02-08T10:27:37.778Z,85
2017-02-08T10:28:38.457Z,90
2017-02-08T10:29:39.137Z,90
2017-02-08T10:30:39.828Z,85
2017-02-08T10:31:40.526Z,85
2017-02-08T10:32:41.199Z,85
2017-02-08T10:33:41.874Z,85
2017-02-08T10:34:42.539Z,85
2017-02-08T10:35:43.210Z,90
2017-02-08T10:36:43.884Z,90
2017-02-08T10:37:44.558Z,90
2017-02-08T10:38:45.234Z,90
2017-02-08T10:39:45.905Z,90
2017-02-08T10:40:46.572Z,85
2017-02-08T10:41:47.300Z,85
2017-02-08T10:42:47.969Z,85
2017-02-08T10:43:48.639Z,85
2017-02-08T10:44:49.310Z,80
2017-02-08T10:45:49.989Z,80
2017-02-08T10:46:50.657Z,75
2017-02-08T10:47:51.324Z,80
2017-02-08T10:48:52.014Z,80
2017-02-08T10:49:52.700Z,85
2017-02-08T10:50:53.403Z,85
2017-02-08T10:51:54.065Z,85
2017-02-08T10:52:54.741Z,85
2017-02-08T10:53:55.425Z,85
2017-02-08T10:54:56.119Z,85
2017-02-08T10:55:56.809Z,85
2017-02-08T10:56:57.517Z,85
2017-02-08T10:57:58.185Z,80
2017-02-08T10:58:58.859Z,80
2017-02-08T10:59:59.550Z,75
2017-02-08T11:01:00.215Z,75
2017-02-08T11:02:00.872Z,75
2017-02-08T11:03:01.576Z,85
2017-02-08T11:04:02.285Z,90
2017-02-08T11:05:02.963Z,90
2017-02-08T11:06:03.687Z,95
2017-02-08T11:07:04.364Z,95
2017-02-08T11:08:05.040Z,100
2017-02-08T11:09:05.715Z,100
2017-02-08T11:10:06.384Z,105
2017-02-08T11:11:07.051Z,105
2017-02-08T11:12:07.728Z,105
2017-02-08T11:13:08.396Z,105
2017-02-08T11:14:09.104Z,105
2017-02-08T11:15:09.782Z,105
2017-02-08T11:16:10.450Z,105
2017-02-08T11:17:11.143Z,105
2017-02-08T11:18:11.842Z,105
2017-02-08T11:19:12.516Z,105
2017-02-08T11:20:13.184Z,105
2017-02-08T11:21:13.863Z,105
2017-02-08T11:22:14.543Z,100
2017-02-08T11:23:15.215Z,95
2017-02-08T11:24:15.892Z,90
2017-02-08T11:25:16.597Z,95
2017-02-08T11:26:17.270Z,95
2017-02-08T11:27:17.956Z,95
2017-02-08T11:28:18.647Z,100
2017-02-08T11:29:19.321Z,100
2017-02-08T11:30:20.015Z,110
2017-02-08T11:31:20.687Z,110
2017-02-08T11:32:21.403Z,105
2017-02-08T11:33:22.152Z,105
2017-02-08T11:34:22.813Z,100
2017-02-08T11:35:23.478Z,100
2017-02-08T11:36:24.153Z,95
2017-02-08T11:37:24.828Z,95
2017-02-08T11:38:25.500Z,100
2017-02-08T11:39:26.177Z,100
2017-02-08T11:40:26.848Z,105
2017-02-08T11:41:27.505Z,110
2017-02-08T11:42:28.188Z,110
2017-02-08T11:43:28.857Z,110
2017-02-08T11:44:29.521Z,110
2017-02-08T11:45:30.196Z,105
2017-02-08T11:46:30.860Z,105
2017-02-08T11:47:31.537Z,105
2017-02-08T11:48:32.226Z,105
2017-02-08T11:49:32.887Z,100
2017-02-08T11:50:33.586Z,100
2017-02-08T11:51:34.277Z,100
2017-02-08T11:52:34.953Z,105
2017-02-08T11:53:35.631Z,105
2017-02-08T11:54:36.325Z,105
2017-02-08T11:55:36.994Z,105
2017-02-08T11:56:37.718Z,105
2017-02-08T11:57:38.390Z,100
2017-02-08T11:58:39.072Z,100
2017-02-08T11:59:39.805Z,105
2017-02-08T12:00:40.491Z,105
2017-02-08T12:01:41.160Z,105
2017-02-08T12:02:41.833Z,100
2017-02-08T12:03:42.505Z,100
2017-02-08T12:04:43.177Z,95
2017-02-08T12:05:43.845Z,90
2017-02-08T12:06:44.519Z,100
2017-02-08T12:07:45.194Z,100
2017-02-08T12:08:45.862Z,100
2017-02-08T12:09:46.537Z,95
2017-02-08T12:10:47.204Z,100
2017-02-08T12:11:47.911Z,100
2017-02-08T12:12:48.572Z,100
2017-02-08T12:13:49.248Z,95
2017-02-08T12:14:49.918Z,95
2017-02-08T12:15:50.634Z,95
2017-02-08T12:16:51.290Z,100
2017-02-08T12:17:51.980Z,100
2017-02-08T12:18:52.660Z,100
2017-02-08T12:19:53.356Z,95
2017-02-08T12:20:54.053Z,90
2017-02-08T12:21:54.718Z,100
2017-02-08T12:22:55.407Z,100
2017-02-08T12:23:56.110Z,95
2017-02-08T12:24:56.781Z,85
2017-02-08T12:25:57.579Z,80
2017-02-08T12:26:58.279Z,85
2017-02-08T12:27:58.946Z,95
2017-02-08T12:28:59.628Z,95
2017-02-08T12:30:00.372Z,90
2017-02-08T12:31:01.061Z,90
2017-02-08T12:32:01.754Z,90
2017-02-08T12:33:02.475Z,90
2017-02-08T12:34:03.152Z,95
2017-02-08T12:35:03.825Z,95
2017-02-08T12:36:04.494Z,95
2017-02-08T12:37:05.157Z,90
2017-02-08T12:38:05.889Z,90
2017-02-08T12:39:06.720Z,90
2017-02-08T12:40:07.393Z,90
2017-02-08T12:41:08.281Z,90
2017-02-08T12:42:09.065Z,90
2017-02-08T12:43:09.718Z,85
2017-02-08T12:44:10.432Z,80
2017-02-08T12:45:11.116Z,80
2017-02-08T12:46:11.766Z,80
2017-02-08T12:47:12.449Z,85
2017-02-08T12:48:13.126Z,85
2017-02-08T12:49:13.787Z,90
2017-02-08T12:50:14.475Z,90
2017-02-08T12:51:15.186Z,90
2017-02-08T12:52:15.915Z,90
2017-02-08T12:53:16.584Z,90
2017-02-08T12:54:17.266Z,85
2017-02-08T12:55:17.934Z,85
2017-02-08T12:56:18.710Z,85
2017-02-08T12:57:19.376Z,85
2017-02-08T12:58:20.048Z,90
2017-02-08T12:59:20.781Z,85
2017-02-08T13:00:21.475Z,85
2017-02-08T13:01:22.169Z,75
2017-02-08T13:02:22.837Z,70
2017-02-08T13:03:23.556Z,65
2017-02-08T13:04:24.225Z,65
2017-02-08T13:05:25.310Z,65
2017-02-08T13:06:26.031Z,65
2017-02-08T13:07:26.896Z,70
2017-02-08T13:08:27.658Z,70
2017-02-08T13:09:28.350Z,70
2017-02-08T13:10:29.050Z,70
2017-02-08T13:11:30.010Z,70
2017-02-08T13:12:30.736Z,75
2017-02-08T13:13:31.446Z,80
2017-02-08T13:14:32.952Z,80
2017-02-08T13:15:33.608Z,75
2017-02-08T13:16:34.311Z,75
2017-02-08T13:17:34.979Z,70
2017-02-08T13:18:35.666Z,60
2017-02-08T13:19:36.507Z,60
2017-02-08T13:20:37.305Z,55
2017-02-08T13:21:37.975Z,50
2017-02-08T13:22:38.655Z,55
2017-02-08T13:23:39.349Z,55
2017-02-08T13:24:40.024Z,55
2017-02-08T13:25:40.683Z,60
2017-02-08T13:26:41.368Z,60
2017-02-08T13:27:42.226Z,60
2017-02-08T13:28:42.918Z,60
2017-02-08T13:29:43.627Z,60
2017-02-08T13:30:44.394Z,55
2017-02-08T13:31:45.102Z,55
2017-02-08T13:32:45.794Z,60
2017-02-08T13:33:46.486Z,60
2017-02-08T13:34:47.161Z,60
2017-02-08T13:35:47.862Z,65
2017-02-08T13:36:48.543Z,65
2017-02-08T13:37:49.255Z,65
2017-02-08T13:38:49.941Z,65
2017-02-08T13:39:50.652Z,60
2017-02-08T13:40:51.330Z,55
2017-02-08T13:41:52.033Z,55
2017-02-08T13:42:52.702Z,50
2017-02-08T13:43:53.403Z,55
2017-02-08T13:44:54.109Z,55
2017-02-08T13:45:54.818Z,55
2017-02-08T13:46:55.521Z,60
2017-02-08T13:47:56.197Z,60
2017-02-08T13:48:56.896Z,55
2017-02-08T13:49:57.707Z,55
2017-02-08T13:50:58.701Z,55
2017-02-08T13:51:59.502Z,50
2017-02-08T13:53:00.255Z,50
2017-02-08T13:54:00.995Z,50
2017-02-08T13:55:01.743Z,50
2017-02-08T13:56:02.476Z,50
2017-02-08T13:57:03.835Z,45
2017-02-08T13:58:04.651Z,45
2017-02-08T13:59:05.828Z,45
2017-02-08T14:00:06.911Z,45
2017-02-08T14:01:07.603Z,50
2017-02-08T14:02:08.360Z,50
2017-02-08T14:03:09.040Z,45
2017-02-08T14:04:09.724Z,45
2017-02-08T14:05:10.651Z,45
2017-02-08T14:06:11.530Z,45
2017-02-08T14:07:12.614Z,45
2017-02-08T14:08:13.591Z,45
2017-02-08T14:09:14.306Z,45
2017-02-08T14:10:14.977Z,45
2017-02-08T14:11:15.635Z,45
2017-02-08T14:12:16.317Z,45
2017-02-08T14:13:17.072Z,45
2017-02-08T14:14:17.747Z,45
2017-02-08T14:15:18.448Z,45
2017-02-08T14:16:19.147Z,45
2017-02-08T14:17:19.835Z,45
2017-02-08T14:18:20.689Z,40
2017-02-08T14:19:21.561Z,40
2017-02-08T14:20:22.270Z,40
2017-02-08T14:21:22.926Z,40
2017-02-08T14:22:23.604Z,40
2017-02-08T14:23:24.419Z,40
2017-02-08T14:24:25.123Z,40
2017-02-08T14:25:25.798Z,40
2017-02-08T14:26:26.463Z,40
2017-02-08T14:27:27.186Z,35
2017-02-08T14:28:28.332Z,35
2017-02-08T14:29:29.105Z,35
2017-02-08T14:30:29.818Z,35
2017-02-08T14:31:30.573Z,35
2017-02-08T14:33:31.973Z,35
2017-02-08T14:36:34.757Z,35
2017-02-08T14:37:35.520Z,35
2017-02-08T14:38:36.251Z,35
2017-02-08T14:40:37.787Z,35
2017-02-08T14:41:38.732Z,30
2017-02-08T14:41:46.847Z,35